sensor_id;sensor_type;location;lat;lon;timestamp;temperature;humidity
26583;DHT22;14230;45.382;10.998;2022-12-11T00:01:16;6.50;99.90
26583;DHT22;14230;45.382;10.998;2022-12-11T00:03:45;6.40;99.90
26583;DHT22;14230;45.382;10.998;2022-12-11T00:06:13;6.40;99.90
26583;DHT22;14230;45.382;10.998;2022-12-11T00:08:41;6.40;99.90
26583;DHT22;14230;45.382;10.998;2022-12-11T00:11:09;6.50;99.90
26583;DHT22;14230;45.382;10.998;2022-12-11T00:13:46;6.50;99.90
26583;DHT22;14230;45.382;10.998;2022-12-11T00:16:14;6.40;99.90
26583;DHT22;14230;45.382;10.998;2022-12-11T00:18:42;6.50;99.90
26583;DHT22;14230;45.382;10.998;2022-12-11T00:21:11;6.50;99.90
26583;DHT22;14230;45.382;10.998;2022-12-11T00:23:38;6.50;99.90
26583;DHT22;14230;45.382;10.998;2022-12-11T00:26:11;6.50;99.90
26583;DHT22;14230;45.382;10.998;2022-12-11T00:28:38;6.50;99.90
26583;DHT22;14230;45.382;10.998;2022-12-11T00:31:06;6.50;99.90
26583;DHT22;14230;45.382;10.998;2022-12-11T00:33:34;6.50;99.90
26583;DHT22;14230;45.382;10.998;2022-12-11T00:36:02;6.50;99.90
26583;DHT22;14230;45.382;10.998;2022-12-11T00:38:29;6.40;99.90
26583;DHT22;14230;45.382;10.998;2022-12-11T00:40:58;6.40;99.90
26583;DHT22;14230;45.382;10.998;2022-12-11T00:43:25;6.40;99.90
26583;DHT22;14230;45.382;10.998;2022-12-11T00:45:52;6.50;99.90
26583;DHT22;14230;45.382;10.998;2022-12-11T00:48:20;6.50;99.90
26583;DHT22;14230;45.382;10.998;2022-12-11T00:50:48;6.40;99.90
26583;DHT22;14230;45.382;10.998;2022-12-11T00:53:15;6.40;99.90
26583;DHT22;14230;45.382;10.998;2022-12-11T00:55:43;6.50;99.90
26583;DHT22;14230;45.382;10.998;2022-12-11T00:58:10;6.50;99.90
26583;DHT22;14230;45.382;10.998;2022-12-11T01:00:38;6.50;99.90
26583;DHT22;14230;45.382;10.998;2022-12-11T01:03:06;6.60;99.90
26583;DHT22;14230;45.382;10.998;2022-12-11T01:05:33;6.60;99.90
26583;DHT22;14230;45.382;10.998;2022-12-11T01:08:01;6.60;99.90
26583;DHT22;14230;45.382;10.998;2022-12-11T01:10:28;6.70;99.90
26583;DHT22;14230;45.382;10.998;2022-12-11T01:13:14;6.70;99.90
26583;DHT22;14230;45.382;10.998;2022-12-11T01:15:42;6.70;99.90
26583;DHT22;14230;45.382;10.998;2022-12-11T01:18:11;6.70;99.90
26583;DHT22;14230;45.382;10.998;2022-12-11T01:20:39;6.80;99.90
26583;DHT22;14230;45.382;10.998;2022-12-11T01:23:09;6.80;99.90
26583;DHT22;14230;45.382;10.998;2022-12-11T01:25:37;6.80;99.90
26583;DHT22;14230;45.382;10.998;2022-12-11T01:28:05;6.80;99.90
26583;DHT22;14230;45.382;10.998;2022-12-11T01:30:35;6.80;99.90
26583;DHT22;14230;45.382;10.998;2022-12-11T01:33:02;6.70;99.90
26583;DHT22;14230;45.382;10.998;2022-12-11T01:35:30;6.80;99.90
26583;DHT22;14230;45.382;10.998;2022-12-11T01:37:57;6.70;99.90
26583;DHT22;14230;45.382;10.998;2022-12-11T01:40:25;6.80;99.90
26583;DHT22;14230;45.382;10.998;2022-12-11T01:42:52;6.80;99.90
26583;DHT22;14230;45.382;10.998;2022-12-11T01:48:00;6.70;99.90
26583;DHT22;14230;45.382;10.998;2022-12-11T01:50:29;6.70;99.90
26583;DHT22;14230;45.382;10.998;2022-12-11T01:52:57;6.70;99.90
26583;DHT22;14230;45.382;10.998;2022-12-11T01:55:24;6.60;99.90
26583;DHT22;14230;45.382;10.998;2022-12-11T01:57:52;6.70;99.90
26583;DHT22;14230;45.382;10.998;2022-12-11T02:00:19;6.70;99.90
26583;DHT22;14230;45.382;10.998;2022-12-11T02:02:47;6.60;99.90
26583;DHT22;14230;45.382;10.998;2022-12-11T02:05:14;6.60;99.90
26583;DHT22;14230;45.382;10.998;2022-12-11T02:07:46;6.60;99.90
26583;DHT22;14230;45.382;10.998;2022-12-11T02:10:14;6.60;99.90
26583;DHT22;14230;45.382;10.998;2022-12-11T02:15:16;6.60;99.90
26583;DHT22;14230;45.382;10.998;2022-12-11T02:20:37;6.60;99.90
26583;DHT22;14230;45.382;10.998;2022-12-11T02:25:56;6.60;99.90
26583;DHT22;14230;45.382;10.998;2022-12-11T02:28:31;6.70;99.90
26583;DHT22;14230;45.382;10.998;2022-12-11T02:31:02;6.60;99.90
26583;DHT22;14230;45.382;10.998;2022-12-11T02:33:33;6.60;99.90
26583;DHT22;14230;45.382;10.998;2022-12-11T02:36:03;6.60;99.90
26583;DHT22;14230;45.382;10.998;2022-12-11T02:38:32;6.70;99.90
26583;DHT22;14230;45.382;10.998;2022-12-11T02:41:00;6.60;99.90
26583;DHT22;14230;45.382;10.998;2022-12-11T02:43:30;6.70;99.90
26583;DHT22;14230;45.382;10.998;2022-12-11T02:45:58;6.60;99.90
26583;DHT22;14230;45.382;10.998;2022-12-11T02:48:26;6.70;99.90
26583;DHT22;14230;45.382;10.998;2022-12-11T02:50:54;6.70;99.90
26583;DHT22;14230;45.382;10.998;2022-12-11T02:53:23;6.70;99.90
26583;DHT22;14230;45.382;10.998;2022-12-11T02:55:53;6.70;99.90
26583;DHT22;14230;45.382;10.998;2022-12-11T02:58:24;6.70;99.90
26583;DHT22;14230;45.382;10.998;2022-12-11T03:00:52;6.70;99.90
26583;DHT22;14230;45.382;10.998;2022-12-11T03:03:20;6.70;99.90
26583;DHT22;14230;45.382;10.998;2022-12-11T03:05:47;6.70;99.90
26583;DHT22;14230;45.382;10.998;2022-12-11T03:08:15;6.70;99.90
26583;DHT22;14230;45.382;10.998;2022-12-11T03:10:44;6.70;99.90
26583;DHT22;14230;45.382;10.998;2022-12-11T03:13:12;6.70;99.90
26583;DHT22;14230;45.382;10.998;2022-12-11T03:21:15;6.70;99.90
26583;DHT22;14230;45.382;10.998;2022-12-11T03:26:31;6.80;99.90
26583;DHT22;14230;45.382;10.998;2022-12-11T03:29:03;6.80;99.90
26583;DHT22;14230;45.382;10.998;2022-12-11T03:31:37;6.80;99.90
26583;DHT22;14230;45.382;10.998;2022-12-11T03:34:12;6.80;99.90
26583;DHT22;14230;45.382;10.998;2022-12-11T03:36:39;6.80;99.90
26583;DHT22;14230;45.382;10.998;2022-12-11T03:39:09;6.90;99.90
26583;DHT22;14230;45.382;10.998;2022-12-11T03:41:38;6.90;99.90
26583;DHT22;14230;45.382;10.998;2022-12-11T03:44:06;6.90;99.90
26583;DHT22;14230;45.382;10.998;2022-12-11T03:46:35;6.90;99.90
26583;DHT22;14230;45.382;10.998;2022-12-11T03:49:16;6.90;99.90
26583;DHT22;14230;45.382;10.998;2022-12-11T03:51:45;7.00;99.90
26583;DHT22;14230;45.382;10.998;2022-12-11T03:54:14;7.00;99.90
26583;DHT22;14230;45.382;10.998;2022-12-11T03:56:42;7.00;99.90
26583;DHT22;14230;45.382;10.998;2022-12-11T03:59:10;7.00;99.90
26583;DHT22;14230;45.382;10.998;2022-12-11T04:01:37;7.00;99.90
26583;DHT22;14230;45.382;10.998;2022-12-11T04:04:04;7.10;99.90
26583;DHT22;14230;45.382;10.998;2022-12-11T04:06:32;7.10;99.90
26583;DHT22;14230;45.382;10.998;2022-12-11T04:08:59;7.20;99.90
26583;DHT22;14230;45.382;10.998;2022-12-11T04:11:26;7.20;99.90
26583;DHT22;14230;45.382;10.998;2022-12-11T04:14:12;7.20;99.90
26583;DHT22;14230;45.382;10.998;2022-12-11T04:16:59;7.20;99.90
26583;DHT22;14230;45.382;10.998;2022-12-11T04:19:26;7.20;99.90
26583;DHT22;14230;45.382;10.998;2022-12-11T04:22:13;7.20;99.90
26583;DHT22;14230;45.382;10.998;2022-12-11T04:24:52;7.20;99.90
26583;DHT22;14230;45.382;10.998;2022-12-11T04:27:20;7.10;99.90
26583;DHT22;14230;45.382;10.998;2022-12-11T04:30:07;7.00;99.90
26583;DHT22;14230;45.382;10.998;2022-12-11T04:32:38;6.90;99.90
26583;DHT22;14230;45.382;10.998;2022-12-11T04:35:06;6.80;99.90
26583;DHT22;14230;45.382;10.998;2022-12-11T04:37:35;6.70;99.90
26583;DHT22;14230;45.382;10.998;2022-12-11T04:40:03;6.60;99.90
26583;DHT22;14230;45.382;10.998;2022-12-11T04:42:31;6.60;99.90
26583;DHT22;14230;45.382;10.998;2022-12-11T04:44:58;6.50;99.90
26583;DHT22;14230;45.382;10.998;2022-12-11T04:47:25;6.50;99.90
26583;DHT22;14230;45.382;10.998;2022-12-11T04:49:53;6.40;99.90
26583;DHT22;14230;45.382;10.998;2022-12-11T04:52:20;6.40;99.90
26583;DHT22;14230;45.382;10.998;2022-12-11T04:54:47;6.40;99.90
26583;DHT22;14230;45.382;10.998;2022-12-11T04:57:15;6.40;99.90
26583;DHT22;14230;45.382;10.998;2022-12-11T04:59:42;6.30;99.90
26583;DHT22;14230;45.382;10.998;2022-12-11T05:02:09;6.30;99.90
26583;DHT22;14230;45.382;10.998;2022-12-11T05:04:37;6.30;99.90
26583;DHT22;14230;45.382;10.998;2022-12-11T05:07:04;6.20;99.90
26583;DHT22;14230;45.382;10.998;2022-12-11T05:09:32;6.20;99.90
26583;DHT22;14230;45.382;10.998;2022-12-11T05:11:59;6.20;99.90
26583;DHT22;14230;45.382;10.998;2022-12-11T05:14:26;6.20;99.90
26583;DHT22;14230;45.382;10.998;2022-12-11T05:16:58;6.20;99.90
26583;DHT22;14230;45.382;10.998;2022-12-11T05:19:25;6.10;99.90
26583;DHT22;14230;45.382;10.998;2022-12-11T05:21:53;6.10;99.90
26583;DHT22;14230;45.382;10.998;2022-12-11T05:24:20;6.10;99.90
26583;DHT22;14230;45.382;10.998;2022-12-11T05:26:47;6.10;99.90
26583;DHT22;14230;45.382;10.998;2022-12-11T05:29:14;6.00;99.90
26583;DHT22;14230;45.382;10.998;2022-12-11T05:31:41;5.90;99.90
26583;DHT22;14230;45.382;10.998;2022-12-11T05:34:10;5.90;99.90
26583;DHT22;14230;45.382;10.998;2022-12-11T05:36:37;5.90;99.90
26583;DHT22;14230;45.382;10.998;2022-12-11T05:39:04;5.90;99.90
26583;DHT22;14230;45.382;10.998;2022-12-11T05:41:31;5.90;99.90
26583;DHT22;14230;45.382;10.998;2022-12-11T05:43:59;5.90;99.90
26583;DHT22;14230;45.382;10.998;2022-12-11T05:46:27;5.90;99.90
26583;DHT22;14230;45.382;10.998;2022-12-11T05:48:55;5.90;99.90
26583;DHT22;14230;45.382;10.998;2022-12-11T05:51:23;5.80;99.90
26583;DHT22;14230;45.382;10.998;2022-12-11T05:53:50;5.80;99.90
26583;DHT22;14230;45.382;10.998;2022-12-11T05:56:19;5.80;99.90
26583;DHT22;14230;45.382;10.998;2022-12-11T05:58:47;5.80;99.90
26583;DHT22;14230;45.382;10.998;2022-12-11T06:01:16;5.70;99.90
26583;DHT22;14230;45.382;10.998;2022-12-11T06:03:44;5.80;99.90
26583;DHT22;14230;45.382;10.998;2022-12-11T06:06:11;5.70;99.90
26583;DHT22;14230;45.382;10.998;2022-12-11T06:08:38;5.70;99.90
26583;DHT22;14230;45.382;10.998;2022-12-11T06:11:05;5.70;99.90
26583;DHT22;14230;45.382;10.998;2022-12-11T06:13:33;5.70;99.90
26583;DHT22;14230;45.382;10.998;2022-12-11T06:16:01;5.70;99.90
26583;DHT22;14230;45.382;10.998;2022-12-11T06:18:29;5.70;99.90
26583;DHT22;14230;45.382;10.998;2022-12-11T06:20:56;5.70;99.90
26583;DHT22;14230;45.382;10.998;2022-12-11T06:23:23;5.70;99.90
26583;DHT22;14230;45.382;10.998;2022-12-11T06:25:50;5.70;99.90
26583;DHT22;14230;45.382;10.998;2022-12-11T06:28:17;5.70;99.90
26583;DHT22;14230;45.382;10.998;2022-12-11T06:30:45;5.70;99.90
26583;DHT22;14230;45.382;10.998;2022-12-11T06:33:12;5.70;99.90
26583;DHT22;14230;45.382;10.998;2022-12-11T06:35:39;5.70;99.90
26583;DHT22;14230;45.382;10.998;2022-12-11T06:38:08;5.70;99.90
26583;DHT22;14230;45.382;10.998;2022-12-11T06:40:36;5.70;99.90
26583;DHT22;14230;45.382;10.998;2022-12-11T06:43:04;5.70;99.90
26583;DHT22;14230;45.382;10.998;2022-12-11T06:45:31;5.70;99.90
26583;DHT22;14230;45.382;10.998;2022-12-11T06:47:58;5.70;99.90
26583;DHT22;14230;45.382;10.998;2022-12-11T06:50:26;5.70;99.90
26583;DHT22;14230;45.382;10.998;2022-12-11T06:52:54;5.70;99.90
26583;DHT22;14230;45.382;10.998;2022-12-11T06:55:21;5.70;99.90
26583;DHT22;14230;45.382;10.998;2022-12-11T06:57:49;5.70;99.90
26583;DHT22;14230;45.382;10.998;2022-12-11T07:00:16;5.70;99.90
26583;DHT22;14230;45.382;10.998;2022-12-11T07:02:43;5.70;99.90
26583;DHT22;14230;45.382;10.998;2022-12-11T07:05:11;5.70;99.90
26583;DHT22;14230;45.382;10.998;2022-12-11T07:07:39;5.60;99.90
26583;DHT22;14230;45.382;10.998;2022-12-11T07:10:07;5.60;99.90
26583;DHT22;14230;45.382;10.998;2022-12-11T07:12:35;5.70;99.90
26583;DHT22;14230;45.382;10.998;2022-12-11T07:15:03;5.70;99.90
26583;DHT22;14230;45.382;10.998;2022-12-11T07:17:30;5.70;99.90
26583;DHT22;14230;45.382;10.998;2022-12-11T07:19:57;5.70;99.90
26583;DHT22;14230;45.382;10.998;2022-12-11T07:22:25;5.80;99.90
26583;DHT22;14230;45.382;10.998;2022-12-11T07:24:52;5.80;99.90
26583;DHT22;14230;45.382;10.998;2022-12-11T07:27:19;5.90;99.90
26583;DHT22;14230;45.382;10.998;2022-12-11T07:29:46;5.80;99.90
26583;DHT22;14230;45.382;10.998;2022-12-11T07:32:14;5.90;99.90
26583;DHT22;14230;45.382;10.998;2022-12-11T07:34:41;5.90;99.90
26583;DHT22;14230;45.382;10.998;2022-12-11T07:37:16;5.90;99.90
26583;DHT22;14230;45.382;10.998;2022-12-11T07:39:43;5.90;99.90
26583;DHT22;14230;45.382;10.998;2022-12-11T07:42:10;6.00;99.90
26583;DHT22;14230;45.382;10.998;2022-12-11T07:44:37;6.00;99.90
26583;DHT22;14230;45.382;10.998;2022-12-11T07:47:04;5.90;99.90
26583;DHT22;14230;45.382;10.998;2022-12-11T07:49:32;5.80;99.90
26583;DHT22;14230;45.382;10.998;2022-12-11T07:51:59;5.70;99.90
26583;DHT22;14230;45.382;10.998;2022-12-11T07:54:26;5.70;99.90
26583;DHT22;14230;45.382;10.998;2022-12-11T07:56:54;5.80;99.90
26583;DHT22;14230;45.382;10.998;2022-12-11T07:59:21;5.80;99.90
26583;DHT22;14230;45.382;10.998;2022-12-11T08:01:48;5.80;99.90
26583;DHT22;14230;45.382;10.998;2022-12-11T08:04:16;5.80;99.90
26583;DHT22;14230;45.382;10.998;2022-12-11T08:06:43;5.90;99.90
26583;DHT22;14230;45.382;10.998;2022-12-11T08:09:11;5.90;99.90
26583;DHT22;14230;45.382;10.998;2022-12-11T08:11:47;5.90;99.90
26583;DHT22;14230;45.382;10.998;2022-12-11T08:14:15;6.00;99.90
26583;DHT22;14230;45.382;10.998;2022-12-11T08:16:42;6.00;99.90
26583;DHT22;14230;45.382;10.998;2022-12-11T08:19:10;6.00;99.90
26583;DHT22;14230;45.382;10.998;2022-12-11T08:21:38;6.10;99.90
26583;DHT22;14230;45.382;10.998;2022-12-11T08:24:06;6.10;99.90
26583;DHT22;14230;45.382;10.998;2022-12-11T08:26:34;6.00;99.90
26583;DHT22;14230;45.382;10.998;2022-12-11T08:29:01;5.90;99.90
26583;DHT22;14230;45.382;10.998;2022-12-11T08:31:29;5.90;99.90
26583;DHT22;14230;45.382;10.998;2022-12-11T08:33:56;5.90;99.90
26583;DHT22;14230;45.382;10.998;2022-12-11T08:36:24;6.00;99.90
26583;DHT22;14230;45.382;10.998;2022-12-11T08:38:51;6.00;99.90
26583;DHT22;14230;45.382;10.998;2022-12-11T08:41:21;6.10;99.90
26583;DHT22;14230;45.382;10.998;2022-12-11T08:43:48;6.20;99.90
26583;DHT22;14230;45.382;10.998;2022-12-11T08:46:18;6.30;99.90
26583;DHT22;14230;45.382;10.998;2022-12-11T08:48:46;6.40;99.90
26583;DHT22;14230;45.382;10.998;2022-12-11T08:51:16;6.50;99.90
26583;DHT22;14230;45.382;10.998;2022-12-11T08:53:44;6.40;99.90
26583;DHT22;14230;45.382;10.998;2022-12-11T08:56:12;6.50;99.90
26583;DHT22;14230;45.382;10.998;2022-12-11T08:58:40;6.60;99.90
26583;DHT22;14230;45.382;10.998;2022-12-11T09:01:09;6.70;99.90
26583;DHT22;14230;45.382;10.998;2022-12-11T09:03:36;6.70;99.90
26583;DHT22;14230;45.382;10.998;2022-12-11T09:06:08;6.70;99.90
26583;DHT22;14230;45.382;10.998;2022-12-11T09:08:35;6.70;99.90
26583;DHT22;14230;45.382;10.998;2022-12-11T09:11:04;6.60;99.90
26583;DHT22;14230;45.382;10.998;2022-12-11T09:13:31;6.70;99.90
26583;DHT22;14230;45.382;10.998;2022-12-11T09:15:58;6.80;99.90
26583;DHT22;14230;45.382;10.998;2022-12-11T09:18:26;6.80;99.90
26583;DHT22;14230;45.382;10.998;2022-12-11T09:21:03;6.80;99.90
26583;DHT22;14230;45.382;10.998;2022-12-11T09:23:30;6.80;99.90
26583;DHT22;14230;45.382;10.998;2022-12-11T09:25:58;6.80;99.90
26583;DHT22;14230;45.382;10.998;2022-12-11T09:28:25;6.80;99.90
26583;DHT22;14230;45.382;10.998;2022-12-11T09:30:52;6.80;99.90
26583;DHT22;14230;45.382;10.998;2022-12-11T09:33:19;6.80;99.90
26583;DHT22;14230;45.382;10.998;2022-12-11T09:35:55;6.80;99.90
26583;DHT22;14230;45.382;10.998;2022-12-11T09:38:23;6.90;99.90
26583;DHT22;14230;45.382;10.998;2022-12-11T09:40:50;6.80;99.90
26583;DHT22;14230;45.382;10.998;2022-12-11T09:43:26;6.80;99.90
26583;DHT22;14230;45.382;10.998;2022-12-11T09:45:55;6.80;99.90
26583;DHT22;14230;45.382;10.998;2022-12-11T09:48:23;6.80;99.90
26583;DHT22;14230;45.382;10.998;2022-12-11T09:50:52;6.70;99.90
26583;DHT22;14230;45.382;10.998;2022-12-11T09:53:28;6.80;99.90
26583;DHT22;14230;45.382;10.998;2022-12-11T09:56:06;6.80;99.90
26583;DHT22;14230;45.382;10.998;2022-12-11T10:06:27;6.80;99.90
26583;DHT22;14230;45.382;10.998;2022-12-11T10:09:12;6.80;99.90
26583;DHT22;14230;45.382;10.998;2022-12-11T10:16:46;7.00;99.90
26583;DHT22;14230;45.382;10.998;2022-12-11T10:19:22;7.10;99.90
26583;DHT22;14230;45.382;10.998;2022-12-11T10:21:50;7.20;99.90
26583;DHT22;14230;45.382;10.998;2022-12-11T10:27:13;7.00;99.90
26583;DHT22;14230;45.382;10.998;2022-12-11T10:29:40;6.80;99.90
26583;DHT22;14230;45.382;10.998;2022-12-11T10:32:11;6.60;99.90
26583;DHT22;14230;45.382;10.998;2022-12-11T10:34:44;6.50;99.90
26583;DHT22;14230;45.382;10.998;2022-12-11T10:37:12;6.30;99.90
26583;DHT22;14230;45.382;10.998;2022-12-11T10:39:40;6.20;99.90
26583;DHT22;14230;45.382;10.998;2022-12-11T10:42:14;6.10;99.90
26583;DHT22;14230;45.382;10.998;2022-12-11T10:44:53;6.10;99.90
26583;DHT22;14230;45.382;10.998;2022-12-11T10:47:20;6.10;99.90
26583;DHT22;14230;45.382;10.998;2022-12-11T10:49:58;6.10;99.90
26583;DHT22;14230;45.382;10.998;2022-12-11T10:52:30;6.10;99.90
26583;DHT22;14230;45.382;10.998;2022-12-11T10:55:01;6.00;99.90
26583;DHT22;14230;45.382;10.998;2022-12-11T10:57:30;6.10;99.90
26583;DHT22;14230;45.382;10.998;2022-12-11T10:59:57;6.00;99.90
26583;DHT22;14230;45.382;10.998;2022-12-11T11:02:27;6.00;99.90
26583;DHT22;14230;45.382;10.998;2022-12-11T11:04:56;6.10;99.90
26583;DHT22;14230;45.382;10.998;2022-12-11T11:07:24;6.00;99.90
26583;DHT22;14230;45.382;10.998;2022-12-11T11:12:39;6.00;99.90
26583;DHT22;14230;45.382;10.998;2022-12-11T11:15:11;6.00;99.90
26583;DHT22;14230;45.382;10.998;2022-12-11T11:17:41;6.00;99.90
26583;DHT22;14230;45.382;10.998;2022-12-11T11:20:29;6.00;99.90
26583;DHT22;14230;45.382;10.998;2022-12-11T11:22:59;6.00;99.90
26583;DHT22;14230;45.382;10.998;2022-12-11T11:25:28;6.00;99.90
26583;DHT22;14230;45.382;10.998;2022-12-11T11:28:06;5.90;99.90
26583;DHT22;14230;45.382;10.998;2022-12-11T11:30:34;5.90;99.90
26583;DHT22;14230;45.382;10.998;2022-12-11T11:33:04;5.80;99.90
26583;DHT22;14230;45.382;10.998;2022-12-11T11:35:32;5.80;99.90
26583;DHT22;14230;45.382;10.998;2022-12-11T11:38:03;5.90;99.90
26583;DHT22;14230;45.382;10.998;2022-12-11T11:40:40;5.90;99.90
26583;DHT22;14230;45.382;10.998;2022-12-11T11:43:15;5.90;99.90
26583;DHT22;14230;45.382;10.998;2022-12-11T11:45:50;5.90;99.90
26583;DHT22;14230;45.382;10.998;2022-12-11T11:50:45;6.00;99.90
26583;DHT22;14230;45.382;10.998;2022-12-11T11:56:05;5.90;99.90
26583;DHT22;14230;45.382;10.998;2022-12-11T11:58:51;5.90;99.90
26583;DHT22;14230;45.382;10.998;2022-12-11T12:01:22;5.90;99.90
26583;DHT22;14230;45.382;10.998;2022-12-11T12:03:49;5.80;99.90
26583;DHT22;14230;45.382;10.998;2022-12-11T12:11:36;5.70;99.90
26583;DHT22;14230;45.382;10.998;2022-12-11T12:20:17;5.70;99.90
26583;DHT22;14230;45.382;10.998;2022-12-11T12:23:12;5.70;99.90
26583;DHT22;14230;45.382;10.998;2022-12-11T12:25:43;5.70;99.90
26583;DHT22;14230;45.382;10.998;2022-12-11T12:33:40;5.50;99.90
26583;DHT22;14230;45.382;10.998;2022-12-11T12:38:53;5.50;99.90
26583;DHT22;14230;45.382;10.998;2022-12-11T12:41:35;5.40;99.90
26583;DHT22;14230;45.382;10.998;2022-12-11T12:49:09;5.20;99.90
26583;DHT22;14230;45.382;10.998;2022-12-11T12:51:38;5.20;99.90
26583;DHT22;14230;45.382;10.998;2022-12-11T12:54:06;5.10;99.90
26583;DHT22;14230;45.382;10.998;2022-12-11T12:56:38;5.10;99.90
26583;DHT22;14230;45.382;10.998;2022-12-11T12:59:17;5.10;99.90
26583;DHT22;14230;45.382;10.998;2022-12-11T13:01:45;5.20;99.90
26583;DHT22;14230;45.382;10.998;2022-12-11T13:04:25;5.20;99.90
26583;DHT22;14230;45.382;10.998;2022-12-11T13:07:21;5.10;99.90
26583;DHT22;14230;45.382;10.998;2022-12-11T13:10:00;5.10;99.90
26583;DHT22;14230;45.382;10.998;2022-12-11T13:12:30;5.00;99.90
26583;DHT22;14230;45.382;10.998;2022-12-11T13:14:58;4.80;99.90
26583;DHT22;14230;45.382;10.998;2022-12-11T13:17:33;4.80;99.90
26583;DHT22;14230;45.382;10.998;2022-12-11T13:20:15;4.80;99.90
26583;DHT22;14230;45.382;10.998;2022-12-11T13:22:48;4.80;99.90
26583;DHT22;14230;45.382;10.998;2022-12-11T13:25:18;4.80;99.90
26583;DHT22;14230;45.382;10.998;2022-12-11T13:27:46;4.80;99.90
26583;DHT22;14230;45.382;10.998;2022-12-11T13:32:48;4.80;99.90
26583;DHT22;14230;45.382;10.998;2022-12-11T13:35:16;4.80;99.90
26583;DHT22;14230;45.382;10.998;2022-12-11T13:37:44;4.70;99.90
26583;DHT22;14230;45.382;10.998;2022-12-11T13:40:15;4.70;99.90
26583;DHT22;14230;45.382;10.998;2022-12-11T13:43:06;4.80;99.90
26583;DHT22;14230;45.382;10.998;2022-12-11T13:48:15;4.40;99.90
26583;DHT22;14230;45.382;10.998;2022-12-11T13:50:43;4.50;99.90
26583;DHT22;14230;45.382;10.998;2022-12-11T13:53:13;4.40;99.90
26583;DHT22;14230;45.382;10.998;2022-12-11T13:55:41;4.40;99.90
26583;DHT22;14230;45.382;10.998;2022-12-11T13:58:18;4.40;99.90
26583;DHT22;14230;45.382;10.998;2022-12-11T14:03:32;4.30;99.90
26583;DHT22;14230;45.382;10.998;2022-12-11T14:05:59;4.20;99.90
26583;DHT22;14230;45.382;10.998;2022-12-11T14:08:30;4.10;99.90
26583;DHT22;14230;45.382;10.998;2022-12-11T14:10:59;4.00;99.90
26583;DHT22;14230;45.382;10.998;2022-12-11T14:13:28;4.10;99.90
26583;DHT22;14230;45.382;10.998;2022-12-11T14:15:58;4.10;99.90
26583;DHT22;14230;45.382;10.998;2022-12-11T14:18:26;4.00;99.90
26583;DHT22;14230;45.382;10.998;2022-12-11T14:21:01;4.10;99.90
26583;DHT22;14230;45.382;10.998;2022-12-11T14:23:30;4.10;99.90
26583;DHT22;14230;45.382;10.998;2022-12-11T14:25:59;4.10;99.90
26583;DHT22;14230;45.382;10.998;2022-12-11T14:28:27;4.00;99.90
26583;DHT22;14230;45.382;10.998;2022-12-11T14:30:56;3.90;99.90
26583;DHT22;14230;45.382;10.998;2022-12-11T14:33:26;3.80;99.90
26583;DHT22;14230;45.382;10.998;2022-12-11T14:35:54;3.70;99.90
26583;DHT22;14230;45.382;10.998;2022-12-11T14:38:26;3.80;99.90
26583;DHT22;14230;45.382;10.998;2022-12-11T14:40:55;3.80;99.90
26583;DHT22;14230;45.382;10.998;2022-12-11T14:43:28;3.80;99.90
26583;DHT22;14230;45.382;10.998;2022-12-11T14:45:58;3.70;99.90
26583;DHT22;14230;45.382;10.998;2022-12-11T14:48:30;3.70;99.90
26583;DHT22;14230;45.382;10.998;2022-12-11T14:51:02;3.70;99.90
26583;DHT22;14230;45.382;10.998;2022-12-11T14:53:35;3.70;99.90
26583;DHT22;14230;45.382;10.998;2022-12-11T14:56:06;3.60;99.90
26583;DHT22;14230;45.382;10.998;2022-12-11T14:58:39;3.60;99.90
26583;DHT22;14230;45.382;10.998;2022-12-11T15:01:28;3.70;99.90
26583;DHT22;14230;45.382;10.998;2022-12-11T15:04:02;3.80;99.90
26583;DHT22;14230;45.382;10.998;2022-12-11T15:06:31;3.90;99.90
26583;DHT22;14230;45.382;10.998;2022-12-11T15:09:09;3.90;99.90
26583;DHT22;14230;45.382;10.998;2022-12-11T15:11:36;3.90;99.90
26583;DHT22;14230;45.382;10.998;2022-12-11T15:14:04;3.80;99.90
26583;DHT22;14230;45.382;10.998;2022-12-11T15:16:32;3.80;99.90
26583;DHT22;14230;45.382;10.998;2022-12-11T15:19:00;3.80;99.90
26583;DHT22;14230;45.382;10.998;2022-12-11T15:21:28;3.70;99.90
26583;DHT22;14230;45.382;10.998;2022-12-11T15:23:57;3.70;99.90
26583;DHT22;14230;45.382;10.998;2022-12-11T15:26:37;3.80;99.90
26583;DHT22;14230;45.382;10.998;2022-12-11T15:29:19;3.70;99.90
26583;DHT22;14230;45.382;10.998;2022-12-11T15:31:57;3.60;99.90
26583;DHT22;14230;45.382;10.998;2022-12-11T15:34:24;3.60;99.90
26583;DHT22;14230;45.382;10.998;2022-12-11T15:36:52;3.70;99.90
26583;DHT22;14230;45.382;10.998;2022-12-11T15:39:19;3.60;99.90
26583;DHT22;14230;45.382;10.998;2022-12-11T15:41:46;3.60;99.90
26583;DHT22;14230;45.382;10.998;2022-12-11T15:44:15;3.60;99.90
26583;DHT22;14230;45.382;10.998;2022-12-11T15:46:44;3.60;99.90
26583;DHT22;14230;45.382;10.998;2022-12-11T15:49:11;3.60;99.90
26583;DHT22;14230;45.382;10.998;2022-12-11T15:51:39;3.60;99.90
26583;DHT22;14230;45.382;10.998;2022-12-11T15:54:10;3.60;99.90
26583;DHT22;14230;45.382;10.998;2022-12-11T15:56:37;3.50;99.90
26583;DHT22;14230;45.382;10.998;2022-12-11T15:59:05;3.50;99.90
26583;DHT22;14230;45.382;10.998;2022-12-11T16:01:33;3.50;99.90
26583;DHT22;14230;45.382;10.998;2022-12-11T16:04:00;3.60;99.90
26583;DHT22;14230;45.382;10.998;2022-12-11T16:06:31;3.50;99.90
26583;DHT22;14230;45.382;10.998;2022-12-11T16:08:59;3.40;99.90
26583;DHT22;14230;45.382;10.998;2022-12-11T16:11:27;3.30;99.90
26583;DHT22;14230;45.382;10.998;2022-12-11T16:13:54;3.30;99.90
26583;DHT22;14230;45.382;10.998;2022-12-11T16:16:21;3.30;99.90
26583;DHT22;14230;45.382;10.998;2022-12-11T16:18:49;3.40;99.90
26583;DHT22;14230;45.382;10.998;2022-12-11T16:21:17;3.40;99.90
26583;DHT22;14230;45.382;10.998;2022-12-11T16:23:47;3.50;99.90
26583;DHT22;14230;45.382;10.998;2022-12-11T16:26:15;3.50;99.90
26583;DHT22;14230;45.382;10.998;2022-12-11T16:28:42;3.60;99.90
26583;DHT22;14230;45.382;10.998;2022-12-11T16:31:10;3.60;99.90
26583;DHT22;14230;45.382;10.998;2022-12-11T16:33:37;3.60;99.90
26583;DHT22;14230;45.382;10.998;2022-12-11T16:36:15;3.60;99.90
26583;DHT22;14230;45.382;10.998;2022-12-11T16:38:46;3.70;99.90
26583;DHT22;14230;45.382;10.998;2022-12-11T16:41:20;3.70;99.90
26583;DHT22;14230;45.382;10.998;2022-12-11T16:43:49;3.70;99.90
26583;DHT22;14230;45.382;10.998;2022-12-11T16:46:20;3.70;99.90
26583;DHT22;14230;45.382;10.998;2022-12-11T16:48:48;3.80;99.90
26583;DHT22;14230;45.382;10.998;2022-12-11T16:51:15;3.80;99.90
26583;DHT22;14230;45.382;10.998;2022-12-11T16:53:47;3.70;99.90
26583;DHT22;14230;45.382;10.998;2022-12-11T16:56:14;3.70;99.90
26583;DHT22;14230;45.382;10.998;2022-12-11T16:58:41;3.70;99.90
26583;DHT22;14230;45.382;10.998;2022-12-11T17:01:09;3.70;99.90